sensor_id;sensor_type;location;lat;lon;timestamp;P1;durP1;ratioP1;P2;durP2;ratioP2
12745;SDS011;6437;53.686;10.030;2022-12-18T00:01:56;26.85;;;11.25;;
12745;SDS011;6437;53.686;10.030;2022-12-18T00:05:00;29.08;;;11.77;;
12745;SDS011;6437;53.686;10.030;2022-12-18T00:08:02;30.85;;;13.60;;
12745;SDS011;6437;53.686;10.030;2022-12-18T00:11:04;25.88;;;12.05;;
12745;SDS011;6437;53.686;10.030;2022-12-18T00:14:08;28.92;;;11.43;;
12745;SDS011;6437;53.686;10.030;2022-12-18T00:17:11;24.70;;;12.02;;
12745;SDS011;6437;53.686;10.030;2022-12-18T00:20:14;24.00;;;12.23;;
12745;SDS011;6437;53.686;10.030;2022-12-18T00:23:21;25.27;;;11.15;;
12745;SDS011;6437;53.686;10.030;2022-12-18T00:26:24;24.67;;;11.52;;
12745;SDS011;6437;53.686;10.030;2022-12-18T00:29:27;26.52;;;12.65;;
12745;SDS011;6437;53.686;10.030;2022-12-18T00:32:29;24.63;;;12.55;;
12745;SDS011;6437;53.686;10.030;2022-12-18T00:35:32;31.67;;;12.95;;
12745;SDS011;6437;53.686;10.030;2022-12-18T00:41:36;25.40;;;11.82;;
12745;SDS011;6437;53.686;10.030;2022-12-18T00:44:55;30.15;;;11.75;;
12745;SDS011;6437;53.686;10.030;2022-12-18T00:47:57;21.95;;;10.85;;
12745;SDS011;6437;53.686;10.030;2022-12-18T00:51:00;24.05;;;10.20;;
12745;SDS011;6437;53.686;10.030;2022-12-18T00:54:02;25.92;;;10.38;;
12745;SDS011;6437;53.686;10.030;2022-12-18T00:57:04;24.75;;;11.77;;
12745;SDS011;6437;53.686;10.030;2022-12-18T01:00:07;28.25;;;11.98;;
12745;SDS011;6437;53.686;10.030;2022-12-18T01:03:11;22.10;;;10.98;;
12745;SDS011;6437;53.686;10.030;2022-12-18T01:06:16;35.53;;;11.57;;
12745;SDS011;6437;53.686;10.030;2022-12-18T01:09:18;26.80;;;11.95;;
12745;SDS011;6437;53.686;10.030;2022-12-18T01:12:20;29.98;;;10.85;;
12745;SDS011;6437;53.686;10.030;2022-12-18T01:15:22;23.85;;;10.57;;
12745;SDS011;6437;53.686;10.030;2022-12-18T01:18:24;24.20;;;11.48;;
12745;SDS011;6437;53.686;10.030;2022-12-18T01:21:27;27.17;;;12.27;;
12745;SDS011;6437;53.686;10.030;2022-12-18T01:24:28;22.35;;;10.55;;
12745;SDS011;6437;53.686;10.030;2022-12-18T01:27:30;27.00;;;11.63;;
12745;SDS011;6437;53.686;10.030;2022-12-18T01:33:35;26.52;;;9.93;;
12745;SDS011;6437;53.686;10.030;2022-12-18T01:36:39;27.35;;;11.23;;
12745;SDS011;6437;53.686;10.030;2022-12-18T01:39:41;27.75;;;10.85;;
12745;SDS011;6437;53.686;10.030;2022-12-18T01:42:43;30.13;;;10.27;;
12745;SDS011;6437;53.686;10.030;2022-12-18T01:45:44;35.03;;;10.73;;
12745;SDS011;6437;53.686;10.030;2022-12-18T01:48:47;30.42;;;13.02;;
12745;SDS011;6437;53.686;10.030;2022-12-18T01:51:52;25.20;;;11.00;;
12745;SDS011;6437;53.686;10.030;2022-12-18T01:54:53;26.42;;;10.07;;
12745;SDS011;6437;53.686;10.030;2022-12-18T01:57:56;27.30;;;10.02;;
12745;SDS011;6437;53.686;10.030;2022-12-18T02:01:00;32.80;;;10.85;;
12745;SDS011;6437;53.686;10.030;2022-12-18T02:04:16;29.80;;;9.95;;
12745;SDS011;6437;53.686;10.030;2022-12-18T02:07:25;32.88;;;10.10;;
12745;SDS011;6437;53.686;10.030;2022-12-18T02:10:35;17.37;;;9.13;;
12745;SDS011;6437;53.686;10.030;2022-12-18T02:13:46;17.55;;;8.45;;
12745;SDS011;6437;53.686;10.030;2022-12-18T02:16:57;17.77;;;7.50;;
12745;SDS011;6437;53.686;10.030;2022-12-18T02:20:06;28.40;;;10.77;;
12745;SDS011;6437;53.686;10.030;2022-12-18T02:23:19;18.33;;;8.15;;
12745;SDS011;6437;53.686;10.030;2022-12-18T02:26:33;20.33;;;8.40;;
12745;SDS011;6437;53.686;10.030;2022-12-18T02:29:38;23.95;;;8.95;;
12745;SDS011;6437;53.686;10.030;2022-12-18T02:32:45;21.10;;;9.30;;
12745;SDS011;6437;53.686;10.030;2022-12-18T02:35:51;27.75;;;7.90;;
12745;SDS011;6437;53.686;10.030;2022-12-18T02:38:54;25.23;;;9.13;;
12745;SDS011;6437;53.686;10.030;2022-12-18T02:41:59;23.45;;;10.15;;
12745;SDS011;6437;53.686;10.030;2022-12-18T02:45:02;23.33;;;9.68;;
12745;SDS011;6437;53.686;10.030;2022-12-18T02:48:04;25.20;;;9.80;;
12745;SDS011;6437;53.686;10.030;2022-12-18T02:51:08;25.48;;;10.02;;
12745;SDS011;6437;53.686;10.030;2022-12-18T02:54:21;26.10;;;9.73;;
12745;SDS011;6437;53.686;10.030;2022-12-18T02:57:37;26.13;;;9.40;;
12745;SDS011;6437;53.686;10.030;2022-12-18T03:00:47;21.88;;;8.15;;
12745;SDS011;6437;53.686;10.030;2022-12-18T03:03:54;27.30;;;8.98;;
12745;SDS011;6437;53.686;10.030;2022-12-18T03:06:59;20.52;;;9.27;;
12745;SDS011;6437;53.686;10.030;2022-12-18T03:10:07;21.45;;;9.27;;
12745;SDS011;6437;53.686;10.030;2022-12-18T03:13:15;24.38;;;9.48;;
12745;SDS011;6437;53.686;10.030;2022-12-18T03:16:22;24.08;;;9.27;;
12745;SDS011;6437;53.686;10.030;2022-12-18T03:19:27;22.15;;;8.38;;
12745;SDS011;6437;53.686;10.030;2022-12-18T03:22:30;16.15;;;8.75;;
12745;SDS011;6437;53.686;10.030;2022-12-18T03:25:34;19.35;;;8.77;;
12745;SDS011;6437;53.686;10.030;2022-12-18T03:28:44;26.40;;;10.43;;
12745;SDS011;6437;53.686;10.030;2022-12-18T03:31:51;20.35;;;7.57;;
12745;SDS011;6437;53.686;10.030;2022-12-18T03:34:56;18.17;;;7.55;;
12745;SDS011;6437;53.686;10.030;2022-12-18T03:38:02;17.50;;;8.88;;
12745;SDS011;6437;53.686;10.030;2022-12-18T03:41:05;20.27;;;7.40;;
12745;SDS011;6437;53.686;10.030;2022-12-18T03:44:18;20.23;;;7.80;;
12745;SDS011;6437;53.686;10.030;2022-12-18T03:47:26;18.33;;;6.90;;
12745;SDS011;6437;53.686;10.030;2022-12-18T03:50:33;26.15;;;8.10;;
12745;SDS011;6437;53.686;10.030;2022-12-18T03:53:41;17.75;;;7.43;;
12745;SDS011;6437;53.686;10.030;2022-12-18T03:56:56;23.75;;;7.93;;
12745;SDS011;6437;53.686;10.030;2022-12-18T04:00:04;28.10;;;7.63;;
12745;SDS011;6437;53.686;10.030;2022-12-18T04:03:09;27.63;;;7.63;;
12745;SDS011;6437;53.686;10.030;2022-12-18T04:06:13;15.82;;;7.32;;
12745;SDS011;6437;53.686;10.030;2022-12-18T04:12:18;18.13;;;5.90;;
12745;SDS011;6437;53.686;10.030;2022-12-18T04:15:22;31.48;;;9.13;;
12745;SDS011;6437;53.686;10.030;2022-12-18T04:18:24;22.80;;;7.47;;
12745;SDS011;6437;53.686;10.030;2022-12-18T04:21:26;20.00;;;8.07;;
12745;SDS011;6437;53.686;10.030;2022-12-18T04:24:28;22.50;;;8.15;;
12745;SDS011;6437;53.686;10.030;2022-12-18T04:27:29;19.30;;;6.85;;
12745;SDS011;6437;53.686;10.030;2022-12-18T04:30:33;20.77;;;7.80;;
12745;SDS011;6437;53.686;10.030;2022-12-18T04:33:34;22.70;;;9.25;;
12745;SDS011;6437;53.686;10.030;2022-12-18T04:36:36;20.50;;;8.05;;
12745;SDS011;6437;53.686;10.030;2022-12-18T04:39:38;19.00;;;7.32;;
12745;SDS011;6437;53.686;10.030;2022-12-18T04:42:40;17.58;;;6.30;;
12745;SDS011;6437;53.686;10.030;2022-12-18T04:45:43;18.67;;;7.22;;
12745;SDS011;6437;53.686;10.030;2022-12-18T04:48:45;22.13;;;7.75;;
12745;SDS011;6437;53.686;10.030;2022-12-18T04:51:47;21.50;;;7.20;;
12745;SDS011;6437;53.686;10.030;2022-12-18T04:54:49;21.63;;;7.10;;
12745;SDS011;6437;53.686;10.030;2022-12-18T04:57:51;19.02;;;6.93;;
12745;SDS011;6437;53.686;10.030;2022-12-18T05:00:54;15.20;;;6.38;;
12745;SDS011;6437;53.686;10.030;2022-12-18T05:03:56;22.63;;;6.97;;
12745;SDS011;6437;53.686;10.030;2022-12-18T05:06:58;16.67;;;6.57;;
12745;SDS011;6437;53.686;10.030;2022-12-18T05:09:59;21.42;;;7.80;;
12745;SDS011;6437;53.686;10.030;2022-12-18T05:13:01;21.45;;;7.00;;
12745;SDS011;6437;53.686;10.030;2022-12-18T05:16:06;23.95;;;7.93;;
12745;SDS011;6437;53.686;10.030;2022-12-18T05:19:10;21.25;;;6.68;;
12745;SDS011;6437;53.686;10.030;2022-12-18T05:22:12;22.40;;;6.75;;
12745;SDS011;6437;53.686;10.030;2022-12-18T05:25:14;24.27;;;7.28;;
12745;SDS011;6437;53.686;10.030;2022-12-18T05:28:16;20.63;;;7.97;;
12745;SDS011;6437;53.686;10.030;2022-12-18T05:31:19;27.55;;;8.30;;
12745;SDS011;6437;53.686;10.030;2022-12-18T05:34:21;21.73;;;6.93;;
12745;SDS011;6437;53.686;10.030;2022-12-18T05:37:23;14.82;;;7.05;;
12745;SDS011;6437;53.686;10.030;2022-12-18T05:40:25;19.40;;;8.38;;
12745;SDS011;6437;53.686;10.030;2022-12-18T05:43:26;23.35;;;7.60;;
12745;SDS011;6437;53.686;10.030;2022-12-18T05:46:30;21.95;;;8.23;;
12745;SDS011;6437;53.686;10.030;2022-12-18T05:49:32;16.05;;;7.22;;
12745;SDS011;6437;53.686;10.030;2022-12-18T05:52:34;17.63;;;7.25;;
12745;SDS011;6437;53.686;10.030;2022-12-18T05:55:36;23.27;;;7.43;;
12745;SDS011;6437;53.686;10.030;2022-12-18T05:58:39;21.17;;;7.50;;
12745;SDS011;6437;53.686;10.030;2022-12-18T06:01:42;20.48;;;11.27;;
12745;SDS011;6437;53.686;10.030;2022-12-18T06:04:44;23.70;;;8.30;;
12745;SDS011;6437;53.686;10.030;2022-12-18T06:07:46;16.95;;;7.22;;
12745;SDS011;6437;53.686;10.030;2022-12-18T06:10:49;20.10;;;7.43;;
12745;SDS011;6437;53.686;10.030;2022-12-18T06:13:53;20.33;;;7.70;;
12745;SDS011;6437;53.686;10.030;2022-12-18T06:16:57;21.95;;;7.43;;
12745;SDS011;6437;53.686;10.030;2022-12-18T06:19:58;33.10;;;10.85;;
12745;SDS011;6437;53.686;10.030;2022-12-18T06:23:01;22.15;;;7.47;;
12745;SDS011;6437;53.686;10.030;2022-12-18T06:26:03;28.55;;;8.80;;
12745;SDS011;6437;53.686;10.030;2022-12-18T06:29:06;19.02;;;7.32;;
12745;SDS011;6437;53.686;10.030;2022-12-18T06:32:09;22.77;;;8.95;;
12745;SDS011;6437;53.686;10.030;2022-12-18T06:38:13;20.02;;;7.32;;
12745;SDS011;6437;53.686;10.030;2022-12-18T06:41:15;24.27;;;9.35;;
12745;SDS011;6437;53.686;10.030;2022-12-18T06:44:18;22.85;;;7.60;;
12745;SDS011;6437;53.686;10.030;2022-12-18T06:47:21;25.63;;;8.38;;
12745;SDS011;6437;53.686;10.030;2022-12-18T06:50:23;18.02;;;8.93;;
12745;SDS011;6437;53.686;10.030;2022-12-18T06:53:25;23.08;;;7.50;;
12745;SDS011;6437;53.686;10.030;2022-12-18T06:56:27;21.27;;;8.40;;
12745;SDS011;6437;53.686;10.030;2022-12-18T06:59:29;23.00;;;8.65;;
12745;SDS011;6437;53.686;10.030;2022-12-18T07:02:32;22.17;;;7.82;;
12745;SDS011;6437;53.686;10.030;2022-12-18T07:08:40;22.17;;;7.40;;
12745;SDS011;6437;53.686;10.030;2022-12-18T07:11:42;17.63;;;7.25;;
12745;SDS011;6437;53.686;10.030;2022-12-18T07:14:44;17.63;;;8.27;;
12745;SDS011;6437;53.686;10.030;2022-12-18T07:17:47;19.35;;;7.55;;
12745;SDS011;6437;53.686;10.030;2022-12-18T07:20:49;19.73;;;8.43;;
12745;SDS011;6437;53.686;10.030;2022-12-18T07:23:50;17.30;;;7.72;;
12745;SDS011;6437;53.686;10.030;2022-12-18T07:26:53;24.58;;;8.88;;
12745;SDS011;6437;53.686;10.030;2022-12-18T07:29:54;24.35;;;8.15;;
12745;SDS011;6437;53.686;10.030;2022-12-18T07:32:58;27.27;;;8.27;;
12745;SDS011;6437;53.686;10.030;2022-12-18T07:36:00;22.08;;;10.30;;
12745;SDS011;6437;53.686;10.030;2022-12-18T07:39:03;28.05;;;9.00;;
12745;SDS011;6437;53.686;10.030;2022-12-18T07:42:05;19.40;;;8.85;;
12745;SDS011;6437;53.686;10.030;2022-12-18T07:45:24;19.23;;;8.13;;
12745;SDS011;6437;53.686;10.030;2022-12-18T07:48:28;17.40;;;8.02;;
12745;SDS011;6437;53.686;10.030;2022-12-18T07:51:30;19.38;;;9.07;;
12745;SDS011;6437;53.686;10.030;2022-12-18T07:54:32;25.30;;;8.05;;
12745;SDS011;6437;53.686;10.030;2022-12-18T07:57:34;23.58;;;8.18;;
12745;SDS011;6437;53.686;10.030;2022-12-18T08:00:35;24.05;;;9.70;;
12745;SDS011;6437;53.686;10.030;2022-12-18T08:03:39;28.00;;;9.18;;
12745;SDS011;6437;53.686;10.030;2022-12-18T08:06:41;22.10;;;9.88;;
12745;SDS011;6437;53.686;10.030;2022-12-18T08:09:43;22.65;;;9.95;;
12745;SDS011;6437;53.686;10.030;2022-12-18T08:12:45;25.65;;;8.93;;
12745;SDS011;6437;53.686;10.030;2022-12-18T08:15:54;34.22;;;10.02;;
12745;SDS011;6437;53.686;10.030;2022-12-18T08:18:58;25.83;;;9.90;;
12745;SDS011;6437;53.686;10.030;2022-12-18T08:22:00;26.13;;;10.20;;
12745;SDS011;6437;53.686;10.030;2022-12-18T08:25:02;26.35;;;10.10;;
12745;SDS011;6437;53.686;10.030;2022-12-18T08:28:04;22.57;;;9.43;;
12745;SDS011;6437;53.686;10.030;2022-12-18T08:31:06;22.42;;;10.13;;
12745;SDS011;6437;53.686;10.030;2022-12-18T08:34:10;27.25;;;10.25;;
12745;SDS011;6437;53.686;10.030;2022-12-18T08:37:12;22.65;;;10.43;;
12745;SDS011;6437;53.686;10.030;2022-12-18T08:40:14;21.02;;;9.00;;
12745;SDS011;6437;53.686;10.030;2022-12-18T08:43:15;27.52;;;9.50;;
12745;SDS011;6437;53.686;10.030;2022-12-18T08:46:35;20.95;;;9.93;;
12745;SDS011;6437;53.686;10.030;2022-12-18T08:49:40;26.60;;;9.65;;
12745;SDS011;6437;53.686;10.030;2022-12-18T08:52:41;21.80;;;8.73;;
12745;SDS011;6437;53.686;10.030;2022-12-18T08:55:43;26.30;;;10.23;;
12745;SDS011;6437;53.686;10.030;2022-12-18T08:58:45;33.03;;;12.13;;
12745;SDS011;6437;53.686;10.030;2022-12-18T09:01:47;18.90;;;8.48;;
12745;SDS011;6437;53.686;10.030;2022-12-18T09:04:50;19.08;;;8.25;;
12745;SDS011;6437;53.686;10.030;2022-12-18T09:07:52;21.13;;;8.20;;
12745;SDS011;6437;53.686;10.030;2022-12-18T09:10:54;20.95;;;8.70;;
12745;SDS011;6437;53.686;10.030;2022-12-18T09:13:56;24.25;;;10.75;;
12745;SDS011;6437;53.686;10.030;2022-12-18T09:16:58;22.08;;;9.30;;
12745;SDS011;6437;53.686;10.030;2022-12-18T09:20:01;18.38;;;8.60;;
12745;SDS011;6437;53.686;10.030;2022-12-18T09:23:03;18.65;;;8.73;;
12745;SDS011;6437;53.686;10.030;2022-12-18T09:26:06;27.90;;;9.47;;
12745;SDS011;6437;53.686;10.030;2022-12-18T09:29:08;30.63;;;10.70;;
12745;SDS011;6437;53.686;10.030;2022-12-18T09:32:10;26.00;;;10.77;;
12745;SDS011;6437;53.686;10.030;2022-12-18T09:35:14;30.00;;;10.35;;
12745;SDS011;6437;53.686;10.030;2022-12-18T09:38:17;23.58;;;10.32;;
12745;SDS011;6437;53.686;10.030;2022-12-18T09:41:25;21.13;;;9.13;;
12745;SDS011;6437;53.686;10.030;2022-12-18T09:44:39;22.63;;;8.70;;
12745;SDS011;6437;53.686;10.030;2022-12-18T09:47:45;20.85;;;9.15;;
12745;SDS011;6437;53.686;10.030;2022-12-18T09:50:51;23.60;;;8.80;;
12745;SDS011;6437;53.686;10.030;2022-12-18T09:53:57;21.92;;;8.35;;
12745;SDS011;6437;53.686;10.030;2022-12-18T09:57:04;18.30;;;9.05;;
12745;SDS011;6437;53.686;10.030;2022-12-18T10:00:09;23.05;;;10.88;;
12745;SDS011;6437;53.686;10.030;2022-12-18T10:03:18;22.08;;;9.95;;
12745;SDS011;6437;53.686;10.030;2022-12-18T10:06:24;19.33;;;8.23;;
12745;SDS011;6437;53.686;10.030;2022-12-18T10:09:33;22.38;;;7.82;;
12745;SDS011;6437;53.686;10.030;2022-12-18T10:12:40;16.88;;;8.02;;
12745;SDS011;6437;53.686;10.030;2022-12-18T10:15:51;18.02;;;8.13;;
12745;SDS011;6437;53.686;10.030;2022-12-18T10:19:11;18.00;;;8.27;;
12745;SDS011;6437;53.686;10.030;2022-12-18T10:22:26;16.50;;;8.25;;
12745;SDS011;6437;53.686;10.030;2022-12-18T10:25:48;31.05;;;9.15;;
12745;SDS011;6437;53.686;10.030;2022-12-18T10:28:54;23.85;;;8.68;;
12745;SDS011;6437;53.686;10.030;2022-12-18T10:31:58;28.42;;;9.25;;
12745;SDS011;6437;53.686;10.030;2022-12-18T10:35:00;27.80;;;10.23;;
12745;SDS011;6437;53.686;10.030;2022-12-18T10:38:04;21.27;;;8.50;;
12745;SDS011;6437;53.686;10.030;2022-12-18T10:41:24;23.38;;;9.80;;
12745;SDS011;6437;53.686;10.030;2022-12-18T10:44:28;27.60;;;11.02;;
12745;SDS011;6437;53.686;10.030;2022-12-18T10:47:30;20.15;;;9.70;;
12745;SDS011;6437;53.686;10.030;2022-12-18T10:50:34;26.27;;;9.52;;
12745;SDS011;6437;53.686;10.030;2022-12-18T10:53:40;22.98;;;10.80;;
12745;SDS011;6437;53.686;10.030;2022-12-18T10:56:43;23.30;;;9.13;;
12745;SDS011;6437;53.686;10.030;2022-12-18T10:59:50;22.95;;;9.75;;
12745;SDS011;6437;53.686;10.030;2022-12-18T11:02:53;27.63;;;9.63;;
12745;SDS011;6437;53.686;10.030;2022-12-18T11:06:01;19.57;;;9.10;;
12745;SDS011;6437;53.686;10.030;2022-12-18T11:09:08;25.20;;;11.70;;
12745;SDS011;6437;53.686;10.030;2022-12-18T11:12:21;23.05;;;8.95;;
12745;SDS011;6437;53.686;10.030;2022-12-18T11:15:25;23.40;;;8.98;;
12745;SDS011;6437;53.686;10.030;2022-12-18T11:18:31;25.02;;;9.85;;
12745;SDS011;6437;53.686;10.030;2022-12-18T11:21:38;22.48;;;8.48;;
12745;SDS011;6437;53.686;10.030;2022-12-18T11:24:49;21.85;;;9.27;;
12745;SDS011;6437;53.686;10.030;2022-12-18T11:27:56;22.15;;;9.40;;
12745;SDS011;6437;53.686;10.030;2022-12-18T11:34:27;25.08;;;10.38;;
12745;SDS011;6437;53.686;10.030;2022-12-18T11:37:32;21.88;;;9.52;;
12745;SDS011;6437;53.686;10.030;2022-12-18T11:40:36;21.83;;;8.50;;
12745;SDS011;6437;53.686;10.030;2022-12-18T11:43:43;25.13;;;8.32;;
12745;SDS011;6437;53.686;10.030;2022-12-18T11:46:51;20.38;;;9.30;;
12745;SDS011;6437;53.686;10.030;2022-12-18T11:50:00;19.73;;;9.73;;
12745;SDS011;6437;53.686;10.030;2022-12-18T11:53:04;14.52;;;7.47;;
12745;SDS011;6437;53.686;10.030;2022-12-18T11:56:18;20.65;;;8.55;;
12745;SDS011;6437;53.686;10.030;2022-12-18T11:59:33;21.23;;;8.65;;
12745;SDS011;6437;53.686;10.030;2022-12-18T12:02:53;20.35;;;9.40;;
12745;SDS011;6437;53.686;10.030;2022-12-18T12:06:12;22.08;;;9.98;;
12745;SDS011;6437;53.686;10.030;2022-12-18T12:09:19;21.35;;;9.98;;
12745;SDS011;6437;53.686;10.030;2022-12-18T12:12:30;26.02;;;11.48;;
12745;SDS011;6437;53.686;10.030;2022-12-18T12:15:47;23.45;;;9.55;;
12745;SDS011;6437;53.686;10.030;2022-12-18T12:19:05;18.77;;;8.55;;
12745;SDS011;6437;53.686;10.030;2022-12-18T12:22:22;23.48;;;10.55;;
12745;SDS011;6437;53.686;10.030;2022-12-18T12:25:33;20.45;;;10.00;;
12745;SDS011;6437;53.686;10.030;2022-12-18T12:32:16;23.63;;;7.90;;
12745;SDS011;6437;53.686;10.030;2022-12-18T12:35:30;18.40;;;7.78;;
12745;SDS011;6437;53.686;10.030;2022-12-18T12:38:40;20.77;;;9.25;;
12745;SDS011;6437;53.686;10.030;2022-12-18T12:41:45;19.20;;;8.65;;
12745;SDS011;6437;53.686;10.030;2022-12-18T12:45:13;23.13;;;10.25;;
12745;SDS011;6437;53.686;10.030;2022-12-18T12:48:22;16.45;;;8.35;;
12745;SDS011;6437;53.686;10.030;2022-12-18T12:51:33;21.67;;;9.90;;
12745;SDS011;6437;53.686;10.030;2022-12-18T12:54:36;23.00;;;9.02;;
12745;SDS011;6437;53.686;10.030;2022-12-18T12:57:39;22.65;;;9.32;;
12745;SDS011;6437;53.686;10.030;2022-12-18T13:00:49;25.73;;;9.52;;
12745;SDS011;6437;53.686;10.030;2022-12-18T13:07:10;24.63;;;10.20;;
12745;SDS011;6437;53.686;10.030;2022-12-18T13:10:23;21.20;;;9.95;;
12745;SDS011;6437;53.686;10.030;2022-12-18T13:13:38;24.98;;;9.77;;
12745;SDS011;6437;53.686;10.030;2022-12-18T13:16:50;24.90;;;9.57;;
12745;SDS011;6437;53.686;10.030;2022-12-18T13:19:52;29.83;;;12.50;;
12745;SDS011;6437;53.686;10.030;2022-12-18T13:23:19;21.67;;;9.63;;
12745;SDS011;6437;53.686;10.030;2022-12-18T13:26:32;20.60;;;10.23;;
12745;SDS011;6437;53.686;10.030;2022-12-18T13:29:41;20.60;;;9.18;;
12745;SDS011;6437;53.686;10.030;2022-12-18T13:32:45;23.90;;;10.75;;
12745;SDS011;6437;53.686;10.030;2022-12-18T13:35:51;24.98;;;11.32;;
12745;SDS011;6437;53.686;10.030;2022-12-18T13:42:36;24.05;;;10.45;;
12745;SDS011;6437;53.686;10.030;2022-12-18T13:46:04;22.80;;;10.35;;
12745;SDS011;6437;53.686;10.030;2022-12-18T13:49:21;28.60;;;11.13;;
12745;SDS011;6437;53.686;10.030;2022-12-18T13:52:26;31.55;;;13.10;;
12745;SDS011;6437;53.686;10.030;2022-12-18T13:55:29;24.42;;;11.30;;
12745;SDS011;6437;53.686;10.030;2022-12-18T13:58:31;33.80;;;13.10;;
12745;SDS011;6437;53.686;10.030;2022-12-18T14:01:34;26.08;;;12.32;;
12745;SDS011;6437;53.686;10.030;2022-12-18T14:04:37;28.65;;;12.98;;
12745;SDS011;6437;53.686;10.030;2022-12-18T14:07:39;33.30;;;13.73;;
12745;SDS011;6437;53.686;10.030;2022-12-18T14:10:41;29.73;;;12.68;;
12745;SDS011;6437;53.686;10.030;2022-12-18T14:13:43;29.52;;;12.32;;
12745;SDS011;6437;53.686;10.030;2022-12-18T14:19:50;38.30;;;15.18;;
12745;SDS011;6437;53.686;10.030;2022-12-18T14:22:52;35.15;;;14.55;;
12745;SDS011;6437;53.686;10.030;2022-12-18T14:25:55;31.40;;;14.03;;
12745;SDS011;6437;53.686;10.030;2022-12-18T14:28:57;34.38;;;13.45;;
12745;SDS011;6437;53.686;10.030;2022-12-18T14:32:05;32.97;;;14.70;;
12745;SDS011;6437;53.686;10.030;2022-12-18T14:35:14;34.53;;;15.20;;
12745;SDS011;6437;53.686;10.030;2022-12-18T14:38:19;43.72;;;17.65;;
12745;SDS011;6437;53.686;10.030;2022-12-18T14:41:23;37.42;;;16.52;;
12745;SDS011;6437;53.686;10.030;2022-12-18T14:44:27;34.17;;;13.32;;
12745;SDS011;6437;53.686;10.030;2022-12-18T14:47:29;36.60;;;15.27;;
12745;SDS011;6437;53.686;10.030;2022-12-18T14:50:34;37.30;;;15.65;;
12745;SDS011;6437;53.686;10.030;2022-12-18T14:53:41;40.70;;;17.27;;
12745;SDS011;6437;53.686;10.030;2022-12-18T14:56:46;38.00;;;16.92;;
12745;SDS011;6437;53.686;10.030;2022-12-18T14:59:50;43.78;;;16.00;;
12745;SDS011;6437;53.686;10.030;2022-12-18T15:02:53;40.37;;;17.67;;
12745;SDS011;6437;53.686;10.030;2022-12-18T15:05:58;38.08;;;15.68;;
12745;SDS011;6437;53.686;10.030;2022-12-18T15:09:21;44.55;;;18.38;;
12745;SDS011;6437;53.686;10.030;2022-12-18T15:12:26;45.70;;;16.35;;
12745;SDS011;6437;53.686;10.030;2022-12-18T15:15:47;44.00;;;18.92;;
12745;SDS011;6437;53.686;10.030;2022-12-18T15:18:49;41.10;;;17.52;;
12745;SDS011;6437;53.686;10.030;2022-12-18T15:21:53;54.72;;;20.77;;
12745;SDS011;6437;53.686;10.030;2022-12-18T15:24:56;50.05;;;19.92;;
12745;SDS011;6437;53.686;10.030;2022-12-18T15:27:59;44.10;;;18.88;;
12745;SDS011;6437;53.686;10.030;2022-12-18T15:31:03;45.30;;;18.73;;
12745;SDS011;6437;53.686;10.030;2022-12-18T15:34:11;43.67;;;18.13;;
12745;SDS011;6437;53.686;10.030;2022-12-18T15:37:16;44.95;;;19.77;;
12745;SDS011;6437;53.686;10.030;2022-12-18T15:40:19;49.58;;;21.67;;
12745;SDS011;6437;53.686;10.030;2022-12-18T15:43:23;49.05;;;20.92;;
12745;SDS011;6437;53.686;10.030;2022-12-18T15:46:34;47.97;;;21.77;;
12745;SDS011;6437;53.686;10.030;2022-12-18T15:49:36;42.40;;;19.08;;
12745;SDS011;6437;53.686;10.030;2022-12-18T15:52:40;52.80;;;19.58;;
12745;SDS011;6437;53.686;10.030;2022-12-18T15:55:44;56.45;;;20.33;;
12745;SDS011;6437;53.686;10.030;2022-12-18T15:59:19;40.88;;;17.42;;
12745;SDS011;6437;53.686;10.030;2022-12-18T16:02:21;51.00;;;19.83;;
12745;SDS011;6437;53.686;10.030;2022-12-18T16:05:23;46.60;;;22.23;;
12745;SDS011;6437;53.686;10.030;2022-12-18T16:08:28;56.38;;;23.75;;
12745;SDS011;6437;53.686;10.030;2022-12-18T16:11:31;58.08;;;21.75;;
12745;SDS011;6437;53.686;10.030;2022-12-18T16:14:41;51.65;;;22.08;;
12745;SDS011;6437;53.686;10.030;2022-12-18T16:17:43;56.25;;;23.42;;
12745;SDS011;6437;53.686;10.030;2022-12-18T16:20:46;54.13;;;23.30;;
12745;SDS011;6437;53.686;10.030;2022-12-18T16:23:49;57.00;;;22.58;;
12745;SDS011;6437;53.686;10.030;2022-12-18T16:26:51;54.60;;;22.27;;
12745;SDS011;6437;53.686;10.030;2022-12-18T16:29:53;58.75;;;24.00;;
12745;SDS011;6437;53.686;10.030;2022-12-18T16:32:55;56.95;;;21.77;;
12745;SDS011;6437;53.686;10.030;2022-12-18T16:35:58;53.97;;;21.88;;
12745;SDS011;6437;53.686;10.030;2022-12-18T16:39:01;59.28;;;24.35;;
12745;SDS011;6437;53.686;10.030;2022-12-18T16:42:04;53.95;;;20.73;;
12745;SDS011;6437;53.686;10.030;2022-12-18T16:45:10;58.33;;;23.75;;
12745;SDS011;6437;53.686;10.030;2022-12-18T16:48:14;50.70;;;22.60;;
12745;SDS011;6437;53.686;10.030;2022-12-18T16:51:16;50.20;;;22.17;;
12745;SDS011;6437;53.686;10.030;2022-12-18T16:54:20;49.53;;;21.60;;
12745;SDS011;6437;53.686;10.030;2022-12-18T16:57:22;61.83;;;24.08;;
12745;SDS011;6437;53.686;10.030;2022-12-18T17:00:24;48.20;;;20.77;;
12745;SDS011;6437;53.686;10.030;2022-12-18T17:03:26;54.88;;;22.02;;
12745;SDS011;6437;53.686;10.030;2022-12-18T17:06:29;60.58;;;21.00;;
12745;SDS011;6437;53.686;10.030;2022-12-18T17:09:34;48.55;;;20.27;;
12745;SDS011;6437;53.686;10.030;2022-12-18T17:12:36;45.78;;;19.17;;
12745;SDS011;6437;53.686;10.030;2022-12-18T17:15:38;42.53;;;19.02;;
12745;SDS011;6437;53.686;10.030;2022-12-18T17:18:40;49.30;;;20.73;;
12745;SDS011;6437;53.686;10.030;2022-12-18T17:21:42;52.28;;;21.75;;
12745;SDS011;6437;53.686;10.030;2022-12-18T17:24:46;59.28;;;24.70;;
12745;SDS011;6437;53.686;10.030;2022-12-18T17:27:54;52.45;;;22.10;;
12745;SDS011;6437;53.686;10.030;2022-12-18T17:30:56;48.35;;;20.77;;
12745;SDS011;6437;53.686;10.030;2022-12-18T17:33:59;50.70;;;21.10;;
12745;SDS011;6437;53.686;10.030;2022-12-18T17:37:02;48.40;;;20.85;;
12745;SDS011;6437;53.686;10.030;2022-12-18T17:40:06;47.50;;;19.58;;
12745;SDS011;6437;53.686;10.030;2022-12-18T17:43:09;45.53;;;19.85;;
12745;SDS011;6437;53.686;10.030;2022-12-18T17:46:12;47.10;;;20.52;;
12745;SDS011;6437;53.686;10.030;2022-12-18T17:49:15;43.53;;;18.52;;
12745;SDS011;6437;53.686;10.030;2022-12-18T17:52:17;43.45;;;18.52;;
12745;SDS011;6437;53.686;10.030;2022-12-18T17:55:20;46.78;;;19.48;;
12745;SDS011;6437;53.686;10.030;2022-12-18T17:58:22;42.72;;;18.85;;
12745;SDS011;6437;53.686;10.030;2022-12-18T18:01:24;50.85;;;18.85;;
12745;SDS011;6437;53.686;10.030;2022-12-18T18:04:26;34.72;;;15.80;;
12745;SDS011;6437;53.686;10.030;2022-12-18T18:07:29;39.95;;;17.65;;
12745;SDS011;6437;53.686;10.030;2022-12-18T18:10:36;34.93;;;17.13;;
12745;SDS011;6437;53.686;10.030;2022-12-18T18:13:39;49.42;;;19.13;;
12745;SDS011;6437;53.686;10.030;2022-12-18T18:16:59;39.53;;;16.42;;
12745;SDS011;6437;53.686;10.030;2022-12-18T18:20:02;40.47;;;17.20;;
12745;SDS011;6437;53.686;10.030;2022-12-18T18:23:05;35.13;;;15.82;;
12745;SDS011;6437;53.686;10.030;2022-12-18T18:26:08;37.00;;;16.98;;
12745;SDS011;6437;53.686;10.030;2022-12-18T18:29:10;36.10;;;15.38;;
12745;SDS011;6437;53.686;10.030;2022-12-18T18:32:14;39.88;;;15.93;;
12745;SDS011;6437;53.686;10.030;2022-12-18T18:35:16;51.72;;;19.20;;
12745;SDS011;6437;53.686;10.030;2022-12-18T18:38:18;36.10;;;16.35;;
12745;SDS011;6437;53.686;10.030;2022-12-18T18:41:21;37.35;;;15.50;;
12745;SDS011;6437;53.686;10.030;2022-12-18T18:44:23;34.00;;;15.55;;